Time;durP1;ratioP1;P1;durP2;ratioP2;P2;SDS_P1;SDS_P2;PMS_P1;PMS_P2;Temp;Humidity;BMP_temperature;BMP_pressure;BME280_temperature;BME280_humidity;BME280_pressure;Samples;Min_cycle;Max_cycle;Signal;HPM_P1;HPM_P2
2022/10/12 00:00:49;;;;;;;4.47;4.17;;;23.90;68.40;;;;;;4880226;29;20958;-86
2022/10/12 00:03:19;;;;;;;4.17;3.77;;;23.90;68.40;;;;;;4879354;29;20451;-86
2022/10/12 00:05:50;;;;;;;4.10;3.80;;;23.90;68.40;;;;;;4879569;29;20502;-86
2022/10/12 00:08:18;;;;;;;4.63;4.33;;;23.90;68.40;;;;;;4879488;29;20447;-86
2022/10/12 00:10:46;;;;;;;4.37;3.73;;;23.90;68.40;;;;;;4880669;29;20450;-86
2022/10/12 00:13:14;;;;;;;4.87;4.47;;;23.90;68.40;;;;;;4880012;29;20484;-86
2022/10/12 00:15:42;;;;;;;4.50;4.20;;;23.90;68.40;;;;;;4879348;29;20487;-85
2022/10/12 00:18:12;;;;;;;4.27;3.97;;;23.90;68.40;;;;;;4879170;29;20491;-85
2022/10/12 00:20:40;;;;;;;4.03;3.70;;;23.90;68.40;;;;;;4879004;29;20490;-85
2022/10/12 00:23:08;;;;;;;4.73;4.33;;;23.90;68.40;;;;;;4876976;29;21005;-86
2022/10/12 00:25:38;;;;;;;6.73;4.67;;;23.90;68.40;;;;;;4879591;29;20467;-86
2022/10/12 00:28:07;;;;;;;4.60;4.30;;;23.90;68.40;;;;;;4878779;29;20953;-86
2022/10/12 00:30:39;;;;;;;4.20;3.90;;;23.90;68.40;;;;;;4880087;29;20481;-86
2022/10/12 00:33:07;;;;;;;4.47;4.10;;;23.90;68.40;;;;;;4878936;29;20460;-86
2022/10/12 00:35:36;;;;;;;4.10;3.80;;;23.90;68.40;;;;;;4879227;29;20473;-86
2022/10/12 00:38:04;;;;;;;4.77;4.47;;;23.90;68.50;;;;;;4879485;29;20937;-86
2022/10/12 00:40:32;;;;;;;4.80;4.50;;;23.90;68.40;;;;;;4878254;29;20827;-86
2022/10/12 00:43:00;;;;;;;5.67;4.80;;;23.90;68.40;;;;;;4879047;29;20473;-85
2022/10/12 00:45:29;;;;;;;4.97;4.50;;;23.90;68.50;;;;;;4878039;29;20468;-86
2022/10/12 00:47:59;;;;;;;4.60;4.30;;;23.90;68.40;;;;;;4879150;29;20521;-86
2022/10/12 00:50:31;;;;;;;4.30;4.00;;;23.90;68.50;;;;;;4879195;29;20796;-86
2022/10/12 00:53:05;;;;;;;4.03;3.80;;;23.80;68.40;;;;;;4879324;29;20511;-85
2022/10/12 00:55:37;;;;;;;5.20;4.80;;;23.80;68.50;;;;;;4878750;29;20904;-85
2022/10/12 00:58:08;;;;;;;4.30;4.00;;;23.80;68.50;;;;;;4875372;29;20552;-86
2022/10/12 01:00:37;;;;;;;4.43;4.03;;;23.90;68.50;;;;;;4873656;29;20456;-86
2022/10/12 01:03:07;;;;;;;4.80;4.40;;;23.80;68.40;;;;;;4874466;29;20455;-85
2022/10/12 01:05:39;;;;;;;4.40;4.00;;;23.80;68.50;;;;;;4875638;29;20457;-85
2022/10/12 01:08:09;;;;;;;4.93;4.40;;;23.80;68.40;;;;;;4878713;29;20448;-85
2022/10/12 01:10:37;;;;;;;4.63;4.23;;;23.80;68.40;;;;;;4878357;29;20479;-86
2022/10/12 01:13:06;;;;;;;4.80;4.40;;;23.80;68.40;;;;;;4877750;29;20460;-86
2022/10/12 01:15:39;;;;;;;4.30;4.00;;;23.80;68.40;;;;;;4878581;29;20479;-85
2022/10/12 01:18:15;;;;;;;4.30;4.00;;;23.80;68.50;;;;;;4878202;29;20479;-85
2022/10/12 01:20:59;;;;;;;4.50;4.17;;;23.80;68.40;;;;;;4878975;29;21060;-86
2022/10/12 01:24:15;;;;;;;3.97;3.67;;;23.80;68.40;;;;;;4877617;29;20482;-86
2022/10/12 01:27:30;;;;;;;4.67;4.37;;;23.80;68.50;;;;;;4878265;29;20471;-85
2022/10/12 01:30:16;;;;;;;4.27;3.93;;;23.80;68.50;;;;;;4866610;29;20966;-86
2022/10/12 01:33:00;;;;;;;3.83;3.50;;;23.80;68.50;;;;;;4864712;29;20445;-86
2022/10/12 01:35:37;;;;;;;5.10;4.70;;;23.80;68.50;;;;;;4866701;29;20532;-86
2022/10/12 01:38:15;;;;;;;5.17;4.77;;;23.80;68.50;;;;;;4878627;29;20557;-86
2022/10/12 01:40:51;;;;;;;4.10;3.80;;;23.80;68.50;;;;;;4860175;29;20448;-86
2022/10/12 01:43:22;;;;;;;4.17;3.87;;;23.80;68.50;;;;;;4874977;29;20467;-86
2022/10/12 01:45:51;;;;;;;4.23;3.93;;;23.80;68.50;;;;;;4875907;29;20962;-85
2022/10/12 01:48:20;;;;;;;4.50;4.10;;;23.80;68.50;;;;;;4877436;29;20469;-86
2022/10/12 01:50:52;;;;;;;4.77;4.47;;;23.80;68.40;;;;;;4878707;29;20872;-86
2022/10/12 01:53:28;;;;;;;4.43;4.13;;;23.80;68.40;;;;;;4878016;29;20461;-86
2022/10/12 01:56:05;;;;;;;4.30;4.00;;;23.80;68.40;;;;;;4877765;29;20475;-86
2022/10/12 01:58:46;;;;;;;5.20;4.80;;;23.80;68.40;;;;;;4878252;29;20438;-86
2022/10/12 02:01:24;;;;;;;4.40;4.10;;;23.80;68.50;;;;;;4876569;29;20477;-85
2022/10/12 02:04:00;;;;;;;5.60;4.13;;;23.80;68.40;;;;;;4876427;29;20466;-85
2022/10/12 02:06:35;;;;;;;4.47;4.17;;;23.80;68.40;;;;;;4869321;29;20474;-86
2022/10/12 02:09:09;;;;;;;4.53;4.13;;;23.80;68.40;;;;;;4877633;29;20455;-86
2022/10/12 02:11:41;;;;;;;4.50;4.20;;;23.80;68.50;;;;;;4877710;29;20456;-84
2022/10/12 02:14:14;;;;;;;4.13;3.83;;;23.80;68.30;;;;;;4877707;29;20919;-86
2022/10/12 02:16:51;;;;;;;3.80;3.50;;;23.80;68.30;;;;;;4875235;29;20495;-86
2022/10/12 02:19:23;;;;;;;4.67;4.37;;;23.80;68.50;;;;;;4876305;29;20476;-86
2022/10/12 02:21:53;;;;;;;4.97;4.57;;;23.80;68.50;;;;;;4873734;29;20454;-86
2022/10/12 02:24:23;;;;;;;4.87;4.37;;;23.80;68.40;;;;;;4859934;29;20460;-86
2022/10/12 02:26:53;;;;;;;5.20;4.60;;;23.80;68.40;;;;;;4873714;29;20524;-86
2022/10/12 02:29:25;;;;;;;4.03;3.73;;;23.80;68.40;;;;;;4877607;29;20447;-86
2022/10/12 02:32:01;;;;;;;4.27;3.97;;;23.80;68.40;;;;;;4877681;29;20464;-86
2022/10/12 02:34:34;;;;;;;4.30;4.00;;;23.80;68.50;;;;;;4877731;29;20806;-84
2022/10/12 02:37:08;;;;;;;4.23;3.93;;;23.80;68.40;;;;;;4877296;29;20483;-86
2022/10/12 02:39:44;;;;;;;4.30;4.00;;;23.80;68.40;;;;;;4878410;29;20796;-86
2022/10/12 02:42:17;;;;;;;3.83;3.53;;;23.80;68.40;;;;;;4878313;29;20820;-85
2022/10/12 02:44:47;;;;;;;4.00;3.70;;;23.80;68.40;;;;;;4877912;29;20445;-86
2022/10/12 02:47:17;;;;;;;3.40;3.10;;;23.80;68.40;;;;;;4876436;29;20524;-85
2022/10/12 02:49:47;;;;;;;4.33;3.87;;;23.80;68.40;;;;;;4875845;29;20464;-86
2022/10/12 02:52:15;;;;;;;4.87;4.47;;;23.80;68.40;;;;;;4873439;29;20449;-86
2022/10/12 02:54:43;;;;;;;4.83;4.43;;;23.80;68.40;;;;;;4877061;29;20464;-85
2022/10/12 02:57:11;;;;;;;4.37;3.97;;;23.80;68.40;;;;;;4875913;29;20492;-86
2022/10/12 02:59:39;;;;;;;4.20;3.90;;;23.80;68.40;;;;;;4877280;29;20460;-85
2022/10/12 03:02:09;;;;;;;4.57;4.17;;;23.80;68.40;;;;;;4865664;29;20913;-86
2022/10/12 03:04:38;;;;;;;4.70;4.40;;;23.80;68.40;;;;;;4859025;29;20791;-85
2022/10/12 03:07:06;;;;;;;4.27;3.97;;;23.80;68.40;;;;;;4872547;29;20956;-86
2022/10/12 03:09:35;;;;;;;5.20;4.73;;;23.80;68.40;;;;;;4881619;29;20436;-86
2022/10/12 03:12:04;;;;;;;4.40;4.10;;;23.80;68.40;;;;;;4880722;29;20457;-85
2022/10/12 03:14:33;;;;;;;4.83;4.53;;;23.80;68.40;;;;;;4880822;29;20826;-85
2022/10/12 03:17:02;;;;;;;4.30;4.00;;;23.80;68.40;;;;;;4880444;29;20488;-85
2022/10/12 03:19:30;;;;;;;4.40;4.10;;;23.70;68.40;;;;;;4880678;29;20501;-86
2022/10/12 03:21:59;;;;;;;4.43;4.13;;;23.80;68.40;;;;;;4880856;29;20460;-85
2022/10/12 03:24:27;;;;;;;4.80;4.40;;;23.80;68.30;;;;;;4881654;29;20469;-86
2022/10/12 03:26:55;;;;;;;4.57;4.27;;;23.80;68.30;;;;;;4880151;29;20465;-86
2022/10/12 03:29:23;;;;;;;4.73;4.33;;;23.80;68.40;;;;;;4880588;29;20453;-86
2022/10/12 03:31:51;;;;;;;4.67;4.37;;;23.80;68.40;;;;;;4877978;29;20472;-86
2022/10/12 03:34:20;;;;;;;4.20;3.90;;;23.80;68.30;;;;;;4879600;29;20469;-86
2022/10/12 03:36:48;;;;;;;3.93;3.63;;;23.80;68.30;;;;;;4880227;29;20471;-85
2022/10/12 03:39:17;;;;;;;4.37;4.07;;;23.70;68.30;;;;;;4881415;29;20928;-85
2022/10/12 03:41:45;;;;;;;5.90;5.33;;;23.70;68.40;;;;;;4880250;29;20827;-86
2022/10/12 03:44:13;;;;;;;6.13;4.50;;;23.80;68.30;;;;;;4880569;29;20442;-86
2022/10/12 03:46:41;;;;;;;4.90;4.60;;;23.80;68.30;;;;;;4877829;29;20472;-85
2022/10/12 03:49:09;;;;;;;4.80;4.40;;;23.80;68.30;;;;;;4876237;29;20477;-86
2022/10/12 03:51:37;;;;;;;5.50;4.07;;;23.70;68.30;;;;;;4876182;29;20466;-85
2022/10/12 03:54:06;;;;;;;4.60;4.30;;;23.70;68.30;;;;;;4880129;29;20470;-86
2022/10/12 03:56:35;;;;;;;4.03;3.73;;;23.70;68.30;;;;;;4877484;29;20473;-85
2022/10/12 03:59:03;;;;;;;4.50;4.20;;;23.70;68.30;;;;;;4879468;29;20490;-85
2022/10/12 04:01:31;;;;;;;4.70;4.23;;;23.70;68.30;;;;;;4879639;29;20467;-85
2022/10/12 04:04:00;;;;;;;4.67;4.27;;;23.70;68.30;;;;;;4879327;29;20472;-86
2022/10/12 04:06:28;;;;;;;5.03;4.73;;;23.70;68.30;;;;;;4877350;29;20473;-86
2022/10/12 04:08:56;;;;;;;4.83;4.43;;;23.70;68.30;;;;;;4877756;29;20464;-86
2022/10/12 04:11:24;;;;;;;5.40;4.50;;;23.70;68.30;;;;;;4880153;29;20992;-86
2022/10/12 04:13:53;;;;;;;4.97;4.57;;;23.70;68.30;;;;;;4880064;29;20975;-86
2022/10/12 04:16:21;;;;;;;4.93;4.63;;;23.70;68.30;;;;;;4875413;29;20456;-86
2022/10/12 04:18:54;;;;;;;4.40;4.10;;;23.70;68.30;;;;;;4876600;29;20508;-85
2022/10/12 04:21:24;;;;;;;4.67;4.37;;;23.70;68.30;;;;;;4878090;29;20486;-85
2022/10/12 04:23:52;;;;;;;4.60;4.30;;;23.70;68.30;;;;;;4877735;29;20449;-86
2022/10/12 04:26:20;;;;;;;5.40;5.00;;;23.70;68.30;;;;;;4877324;29;20456;-85
2022/10/12 04:28:48;;;;;;;4.77;4.40;;;23.70;68.30;;;;;;4878901;29;20456;-85
2022/10/12 04:31:18;;;;;;;4.93;4.63;;;23.70;68.30;;;;;;4876402;29;20492;-85
2022/10/12 04:33:46;;;;;;;4.30;4.00;;;23.70;68.30;;;;;;4878299;29;20462;-86
2022/10/12 04:36:14;;;;;;;6.40;5.47;;;23.70;68.30;;;;;;4877336;29;20472;-85
2022/10/12 04:38:42;;;;;;;4.77;4.47;;;23.70;68.30;;;;;;4879216;29;20836;-86
2022/10/12 04:41:10;;;;;;;4.27;3.97;;;23.70;68.30;;;;;;4876548;29;20458;-85
2022/10/12 04:43:38;;;;;;;4.40;4.20;;;23.70;68.30;;;;;;4879227;29;20815;-86
2022/10/12 04:46:07;;;;;;;4.90;4.50;;;23.70;68.30;;;;;;4878164;29;20469;-85
2022/10/12 04:48:36;;;;;;;4.53;4.23;;;23.70;68.20;;;;;;4878361;29;20457;-86
2022/10/12 04:51:05;;;;;;;5.10;4.70;;;23.70;68.30;;;;;;4873338;29;20475;-81
2022/10/12 04:53:34;;;;;;;5.40;4.80;;;23.70;68.30;;;;;;4869414;29;20465;-85
2022/10/12 04:56:03;;;;;;;4.73;4.33;;;23.70;68.40;;;;;;4877369;29;20487;-86
2022/10/12 04:58:31;;;;;;;4.90;4.60;;;23.70;68.50;;;;;;4875418;29;20866;-83
2022/10/12 05:01:00;;;;;;;3.60;3.40;;;23.70;68.40;;;;;;4868271;29;20456;-84
2022/10/12 05:03:28;;;;;;;4.40;4.00;;;23.70;68.60;;;;;;4868483;29;20466;-85
2022/10/12 05:05:57;;;;;;;5.83;5.17;;;23.70;68.50;;;;;;4875807;29;20899;-85
2022/10/12 05:08:25;;;;;;;5.77;5.07;;;23.70;68.60;;;;;;4875618;29;20551;-85
2022/10/12 05:10:56;;;;;;;4.63;4.17;;;23.70;68.60;;;;;;4873751;29;20542;-85
2022/10/12 05:13:25;;;;;;;4.43;4.13;;;23.70;68.60;;;;;;4877542;29;20464;-82
2022/10/12 05:15:53;;;;;;;7.37;4.83;;;23.70;68.60;;;;;;4876092;29;20526;-82
2022/10/12 05:18:21;;;;;;;8.50;4.47;;;23.60;68.70;;;;;;4876157;29;20487;-84
2022/10/12 05:20:50;;;;;;;4.47;4.17;;;23.70;68.70;;;;;;4872809;29;20885;-84
2022/10/12 05:23:25;;;;;;;5.03;4.30;;;23.70;68.80;;;;;;4874924;29;20448;-87
2022/10/12 05:25:55;;;;;;;5.77;5.13;;;23.70;68.90;;;;;;4871996;29;20467;-86
2022/10/12 05:28:23;;;;;;;7.00;4.47;;;23.70;68.90;;;;;;4871205;29;20474;-87
2022/10/12 05:30:51;;;;;;;4.87;4.47;;;23.70;68.90;;;;;;4870386;29;20479;-85
2022/10/12 05:33:20;;;;;;;5.67;4.80;;;23.70;69.00;;;;;;4866640;29;20468;-84
2022/10/12 05:35:48;;;;;;;4.90;4.60;;;23.70;68.90;;;;;;4865232;29;20469;-85
2022/10/12 05:38:24;;;;;;;5.60;5.10;;;23.70;68.90;;;;;;4866720;29;20576;-86
2022/10/12 05:40:52;;;;;;;5.47;4.90;;;23.60;68.90;;;;;;4868419;29;20584;-85
2022/10/12 05:43:27;;;;;;;11.43;4.87;;;23.60;68.90;;;;;;4864251;29;20961;-85
2022/10/12 05:45:55;;;;;;;5.53;5.03;;;23.60;69.00;;;;;;4865303;29;21426;-85
2022/10/12 05:48:23;;;;;;;7.40;4.63;;;23.60;69.00;;;;;;4868172;29;20468;-84
2022/10/12 05:50:53;;;;;;;5.17;4.77;;;23.60;69.10;;;;;;4863274;29;20478;-84
2022/10/12 05:53:21;;;;;;;5.70;5.23;;;23.70;69.00;;;;;;4861364;29;20815;-84
2022/10/12 05:55:55;;;;;;;6.00;4.47;;;23.60;68.90;;;;;;4868011;29;20985;-83
2022/10/12 05:58:23;;;;;;;8.67;4.90;;;23.60;68.90;;;;;;4865080;29;20455;-84
2022/10/12 06:00:51;;;;;;;5.40;4.80;;;23.60;68.90;;;;;;4859936;29;20461;-84
2022/10/12 06:03:20;;;;;;;8.47;5.17;;;23.60;68.90;;;;;;4862192;29;20454;-84
2022/10/12 06:05:53;;;;;;;4.63;4.23;;;23.60;68.80;;;;;;4864564;29;20787;-84
2022/10/12 06:08:21;;;;;;;4.77;4.37;;;23.60;68.80;;;;;;4863463;29;20475;-84
2022/10/12 06:10:51;;;;;;;5.40;5.00;;;23.60;68.80;;;;;;4863208;29;20469;-84
2022/10/12 06:13:20;;;;;;;5.90;5.30;;;23.60;68.80;;;;;;4865517;29;20459;-84
2022/10/12 06:15:49;;;;;;;5.10;4.70;;;23.60;68.80;;;;;;4879838;29;20471;-83
2022/10/12 06:18:18;;;;;;;5.30;4.77;;;23.60;68.80;;;;;;4863814;29;20493;-84
2022/10/12 06:20:48;;;;;;;4.87;4.57;;;23.60;68.80;;;;;;4870587;29;20494;-83
2022/10/12 06:23:16;;;;;;;5.23;4.83;;;23.60;68.80;;;;;;4863280;29;20461;-84
2022/10/12 06:25:46;;;;;;;5.47;5.07;;;23.60;68.80;;;;;;4863312;29;20467;-83
2022/10/12 06:28:14;;;;;;;4.63;4.23;;;23.60;68.80;;;;;;4859260;29;20478;-84
2022/10/12 06:30:43;;;;;;;5.63;5.03;;;23.60;68.70;;;;;;4862692;29;20489;-84
2022/10/12 06:33:12;;;;;;;6.67;6.07;;;23.60;68.70;;;;;;4863221;29;20469;-84
2022/10/12 06:35:40;;;;;;;5.83;5.33;;;23.60;68.70;;;;;;4868444;29;20956;-84
2022/10/12 06:38:08;;;;;;;5.80;5.30;;;23.60;68.70;;;;;;4862912;29;20554;-84
2022/10/12 06:40:36;;;;;;;4.90;4.50;;;23.60;68.70;;;;;;4866859;29;20490;-84
2022/10/12 06:43:04;;;;;;;5.30;4.90;;;23.60;68.70;;;;;;4865588;29;20480;-84
2022/10/12 06:45:32;;;;;;;5.30;4.90;;;23.60;68.70;;;;;;4871095;29;20473;-84
2022/10/12 06:48:02;;;;;;;5.47;5.07;;;23.60;68.70;;;;;;4867454;29;20971;-82
2022/10/12 06:50:30;;;;;;;5.57;5.17;;;23.60;68.70;;;;;;4868257;29;20485;-83
2022/10/12 06:52:58;;;;;;;4.93;4.50;;;23.60;69.40;;;;;;4876810;29;20459;-82
2022/10/12 06:55:27;;;;;;;6.10;5.60;;;23.70;69.60;;;;;;4874829;29;20461;-83
2022/10/12 06:57:55;;;;;;;5.63;5.13;;;23.70;69.70;;;;;;4880628;29;20469;-81
2022/10/12 07:00:23;;;;;;;5.37;4.90;;;23.70;69.70;;;;;;4880794;29;20485;-81
2022/10/12 07:02:52;;;;;;;5.60;5.20;;;23.70;69.80;;;;;;4867391;29;20492;-81
2022/10/12 07:05:24;;;;;;;5.03;4.63;;;23.70;69.90;;;;;;4880794;29;20459;-80
2022/10/12 07:07:52;;;;;;;5.97;5.47;;;23.70;69.90;;;;;;4879809;29;20465;-81
2022/10/12 07:10:20;;;;;;;5.23;4.80;;;23.80;69.90;;;;;;4877142;29;20468;-83
2022/10/12 07:12:48;;;;;;;5.40;5.00;;;23.80;69.80;;;;;;4878828;29;20472;-83
2022/10/12 07:15:16;;;;;;;6.27;5.00;;;23.80;69.80;;;;;;4879545;29;20457;-82
2022/10/12 07:17:44;;;;;;;5.00;4.60;;;23.80;69.70;;;;;;4878004;29;20455;-84
2022/10/12 07:20:12;;;;;;;5.20;4.70;;;23.80;69.50;;;;;;4876855;29;20884;-83
2022/10/12 07:22:43;;;;;;;5.70;5.30;;;23.90;69.40;;;;;;4879333;29;20469;-84
2022/10/12 07:25:11;;;;;;;4.70;4.40;;;23.90;69.40;;;;;;4878421;29;20460;-83
2022/10/12 07:27:39;;;;;;;5.70;5.30;;;23.90;69.40;;;;;;4877151;29;20463;-84
2022/10/12 07:30:10;;;;;;;5.53;5.07;;;23.90;69.40;;;;;;4878898;29;20486;-83
2022/10/12 07:32:38;;;;;;;5.10;4.70;;;23.90;69.40;;;;;;4875924;29;20464;-84
2022/10/12 07:35:07;;;;;;;5.20;4.70;;;23.90;69.40;;;;;;4878444;29;20849;-83
2022/10/12 07:37:35;;;;;;;6.20;5.70;;;23.90;69.40;;;;;;4878577;29;20485;-83
2022/10/12 07:40:06;;;;;;;5.10;4.70;;;24.00;69.30;;;;;;4877112;29;20908;-83
2022/10/12 07:42:34;;;;;;;5.33;4.93;;;24.00;69.20;;;;;;4877502;29;20772;-83
2022/10/12 07:45:02;;;;;;;6.40;5.90;;;24.00;69.10;;;;;;4877224;29;20466;-82
2022/10/12 07:47:30;;;;;;;5.50;5.10;;;24.00;69.00;;;;;;4877642;29;20550;-82
2022/10/12 07:49:58;;;;;;;5.00;4.60;;;24.00;69.10;;;;;;4875592;29;20534;-83
2022/10/12 07:52:27;;;;;;;5.40;5.10;;;24.10;68.80;;;;;;4874522;29;20461;-88
2022/10/12 07:54:55;;;;;;;5.63;4.50;;;24.10;68.80;;;;;;4909169;23;20509;-68
2022/10/12 07:57:24;;;;;;;5.23;4.83;;;24.00;69.00;;;;;;4895978;29;20457;-67
2022/10/12 07:59:53;;;;;;;4.80;4.50;;;24.10;69.00;;;;;;4899816;29;20996;-69
2022/10/12 08:02:21;;;;;;;5.70;5.30;;;24.10;69.00;;;;;;4891249;29;20459;-67
2022/10/12 08:04:49;;;;;;;5.20;4.80;;;24.10;68.90;;;;;;4896086;29;20452;-68
2022/10/12 08:07:17;;;;;;;4.97;4.63;;;24.10;68.80;;;;;;4896504;29;20464;-67
2022/10/12 08:09:48;;;;;;;5.07;4.67;;;24.10;68.70;;;;;;4897438;29;20538;-70
2022/10/12 08:12:16;;;;;;;7.77;5.00;;;24.10;68.70;;;;;;4900744;29;20459;-70
2022/10/12 08:14:45;;;;;;;5.40;5.00;;;24.10;68.70;;;;;;4897651;29;20449;-70
2022/10/12 08:17:14;;;;;;;5.33;4.93;;;24.10;68.80;;;;;;4894741;29;20460;-70
2022/10/12 08:19:42;;;;;;;5.07;4.73;;;24.10;68.80;;;;;;4893282;29;20478;-71
2022/10/12 08:22:11;;;;;;;5.23;4.83;;;24.10;68.80;;;;;;4895048;29;21159;-71
2022/10/12 08:24:39;;;;;;;5.20;4.80;;;24.10;68.70;;;;;;4898656;29;20911;-70
2022/10/12 08:27:07;;;;;;;5.17;4.87;;;24.10;68.70;;;;;;4893525;29;20471;-69
2022/10/12 08:29:35;;;;;;;5.33;4.87;;;24.10;68.70;;;;;;4891589;29;20454;-70
2022/10/12 08:32:05;;;;;;;5.60;5.20;;;24.10;68.70;;;;;;4894971;29;20460;-70
2022/10/12 08:34:33;;;;;;;5.93;4.67;;;24.20;68.70;;;;;;4886168;29;20813;-70
2022/10/12 08:37:01;;;;;;;5.37;4.97;;;24.20;68.60;;;;;;4890356;29;20465;-69
2022/10/12 08:39:29;;;;;;;5.23;4.87;;;24.20;68.60;;;;;;4898194;29;20461;-71
2022/10/12 08:42:09;;;;;;;5.40;5.00;;;24.20;68.60;;;;;;4894003;29;20512;-71
2022/10/12 08:45:01;;;;;;;5.30;4.90;;;24.20;68.60;;;;;;4903178;29;20577;-70
2022/10/12 08:47:39;;;;;;;5.00;4.70;;;24.20;68.50;;;;;;4897341;29;20462;-72
2022/10/12 08:50:17;;;;;;;5.53;5.23;;;24.20;68.60;;;;;;4894006;29;20453;-71
2022/10/12 08:52:55;;;;;;;5.30;4.90;;;24.20;68.60;;;;;;4898057;29;20591;-71
2022/10/12 08:55:33;;;;;;;5.37;4.97;;;24.20;68.50;;;;;;4894562;29;20527;-74
2022/10/12 08:58:02;;;;;;;4.80;4.50;;;24.20;68.50;;;;;;4900036;29;20479;-72
2022/10/12 09:00:33;;;;;;;5.47;5.07;;;24.20;68.40;;;;;;4887594;29;20486;-70
2022/10/12 09:03:18;;;;;;;5.90;5.40;;;24.30;68.40;;;;;;4899768;29;20461;-71
2022/10/12 09:05:53;;;;;;;5.30;4.90;;;24.30;68.40;;;;;;4896336;29;20448;-70
2022/10/12 09:08:32;;;;;;;5.80;5.30;;;24.30;68.30;;;;;;4898790;29;20546;-71
2022/10/12 09:11:07;;;;;;;5.33;4.93;;;24.30;68.30;;;;;;4896766;29;20539;-70
2022/10/12 09:13:46;;;;;;;5.83;5.43;;;24.30;68.30;;;;;;4896802;29;20454;-70
2022/10/12 09:16:21;;;;;;;5.30;4.90;;;24.30;68.30;;;;;;4899139;29;20450;-69
2022/10/12 09:18:56;;;;;;;5.77;5.37;;;24.30;68.30;;;;;;4890581;29;20471;-70
2022/10/12 09:21:27;;;;;;;5.53;5.13;;;24.30;68.20;;;;;;4895757;29;20565;-70
2022/10/12 09:23:56;;;;;;;6.20;5.80;;;24.30;68.20;;;;;;4895815;29;20469;-71
2022/10/12 09:26:34;;;;;;;5.73;5.23;;;24.30;68.20;;;;;;4892794;29;20446;-70
2022/10/12 09:29:11;;;;;;;5.50;5.10;;;24.30;68.20;;;;;;4895019;29;20458;-71
2022/10/12 09:31:51;;;;;;;5.77;5.27;;;24.30;68.20;;;;;;4891360;29;20455;-78
2022/10/12 09:34:23;;;;;;;6.43;5.83;;;24.30;68.20;;;;;;4890433;29;20550;-78
2022/10/12 09:36:52;;;;;;;5.97;5.47;;;24.30;68.30;;;;;;4891473;29;20448;-80
2022/10/12 09:39:24;;;;;;;6.10;5.63;;;24.30;68.30;;;;;;4889087;29;20492;-81
2022/10/12 09:41:56;;;;;;;6.03;5.60;;;24.40;68.30;;;;;;4896661;29;20478;-80
2022/10/12 09:44:30;;;;;;;6.10;5.70;;;24.40;68.30;;;;;;4890536;29;20445;-78
2022/10/12 09:47:01;;;;;;;5.00;4.70;;;24.40;68.30;;;;;;4898665;29;20807;-79
2022/10/12 09:49:42;;;;;;;6.47;5.70;;;24.40;68.20;;;;;;4897723;29;20447;-78
2022/10/12 09:52:11;;;;;;;5.13;4.73;;;24.40;68.30;;;;;;4892812;29;20506;-78
2022/10/12 09:54:41;;;;;;;5.80;5.30;;;24.40;68.30;;;;;;4892812;29;20489;-78
2022/10/12 09:57:10;;;;;;;5.57;5.07;;;24.40;68.20;;;;;;4895176;29;20461;-79
2022/10/12 09:59:43;;;;;;;5.97;5.57;;;24.40;68.20;;;;;;4898283;29;20548;-79
2022/10/12 10:02:15;;;;;;;6.33;5.93;;;24.40;68.20;;;;;;4897296;29;20905;-79
2022/10/12 10:04:46;;;;;;;5.00;4.70;;;24.40;68.20;;;;;;4885252;29;20461;-79
2022/10/12 10:07:26;;;;;;;5.40;5.10;;;24.40;68.20;;;;;;4895664;29;20463;-76
2022/10/12 10:10:15;;;;;;;5.70;5.30;;;24.40;68.10;;;;;;4891244;29;20799;-79
2022/10/12 10:12:52;;;;;;;5.40;5.00;;;24.50;68.20;;;;;;4887798;29;20474;-71
2022/10/12 10:15:24;;;;;;;5.67;5.07;;;24.40;68.00;;;;;;4892076;29;20842;-70
2022/10/12 10:17:54;;;;;;;5.47;5.07;;;24.50;67.90;;;;;;4888696;29;20464;-70
2022/10/12 10:20:30;;;;;;;6.13;5.53;;;24.50;67.70;;;;;;4896141;29;20497;-70
2022/10/12 10:22:59;;;;;;;5.57;5.20;;;24.50;67.60;;;;;;4895375;29;20479;-70
2022/10/12 10:25:28;;;;;;;5.47;4.97;;;24.50;67.60;;;;;;4899632;29;20487;-70
2022/10/12 10:28:21;;;;;;;5.93;5.43;;;24.50;67.40;;;;;;4899168;29;20466;-73
2022/10/12 10:31:01;;;;;;;5.80;5.40;;;24.50;67.40;;;;;;4893327;29;20482;-71
2022/10/12 10:33:31;;;;;;;6.63;6.13;;;24.50;67.30;;;;;;4890148;29;21050;-69
2022/10/12 10:36:08;;;;;;;5.43;5.07;;;24.50;67.20;;;;;;4892444;29;20955;-68
2022/10/12 10:38:54;;;;;;;5.33;4.80;;;24.50;67.20;;;;;;4888068;29;20483;-70
2022/10/12 10:41:27;;;;;;;5.87;5.47;;;24.50;67.20;;;;;;4889395;29;20487;-70
2022/10/12 10:43:55;;;;;;;5.13;4.73;;;24.50;67.20;;;;;;4889174;29;21006;-69
2022/10/12 10:46:26;;;;;;;5.73;5.30;;;24.50;67.20;;;;;;4889373;29;20551;-69
2022/10/12 10:49:05;;;;;;;5.53;5.13;;;24.50;67.20;;;;;;4892187;29;20554;-70
2022/10/12 10:51:44;;;;;;;5.97;5.50;;;24.50;67.20;;;;;;4889601;29;20463;-72
2022/10/12 10:54:24;;;;;;;5.80;5.40;;;24.50;67.30;;;;;;4892982;29;20581;-69
2022/10/12 10:56:56;;;;;;;5.93;5.20;;;24.50;67.30;;;;;;4891064;29;20944;-69
2022/10/12 10:59:36;;;;;;;5.27;4.87;;;24.40;67.30;;;;;;4892009;29;20451;-70
2022/10/12 11:02:16;;;;;;;4.87;4.57;;;24.40;67.30;;;;;;4893229;29;20471;-69
2022/10/12 11:04:48;;;;;;;6.07;5.20;;;24.40;67.30;;;;;;4889498;29;20458;-69
2022/10/12 11:07:26;;;;;;;5.47;4.93;;;24.40;67.30;;;;;;4886830;29;20542;-71
2022/10/12 11:09:56;;;;;;;5.73;5.33;;;24.40;67.30;;;;;;4884250;29;20450;-71
2022/10/12 11:12:29;;;;;;;5.27;4.90;;;24.40;67.40;;;;;;4892978;29;20454;-70
2022/10/12 11:15:06;;;;;;;5.77;5.27;;;24.40;67.40;;;;;;4893646;29;20455;-69
2022/10/12 11:17:38;;;;;;;5.23;4.70;;;24.40;67.40;;;;;;4892475;29;20508;-72
2022/10/12 11:20:27;;;;;;;5.70;5.30;;;24.40;67.30;;;;;;4896968;29;20975;-76
2022/10/12 11:23:02;;;;;;;5.50;5.10;;;24.40;67.80;;;;;;4894806;29;20614;-73
2022/10/12 11:25:37;;;;;;;5.17;4.77;;;24.40;68.00;;;;;;4896651;29;21090;-72
2022/10/12 11:28:07;;;;;;;4.80;4.50;;;24.40;68.00;;;;;;4896523;29;20448;-72
2022/10/12 11:30:41;;;;;;;6.37;5.70;;;24.40;68.20;;;;;;4895743;29;20440;-72
2022/10/12 11:33:14;;;;;;;5.60;5.10;;;24.40;68.30;;;;;;4893979;29;20510;-72
2022/10/12 11:35:45;;;;;;;5.13;4.73;;;24.40;68.40;;;;;;4889297;29;20443;-72
2022/10/12 11:38:21;;;;;;;5.37;4.90;;;24.40;68.40;;;;;;4899292;29;20550;-73
2022/10/12 11:40:52;;;;;;;5.07;4.67;;;24.50;68.40;;;;;;4897701;29;20503;-73
2022/10/12 11:43:48;;;;;;;5.00;4.70;;;24.50;68.40;;;;;;4888733;29;20474;-75
2022/10/12 11:46:20;;;;;;;6.37;5.87;;;24.50;68.50;;;;;;4896152;29;20537;-73
2022/10/12 11:48:53;;;;;;;6.80;5.30;;;24.50;68.40;;;;;;4891256;29;20580;-72
2022/10/12 11:51:21;;;;;;;5.20;4.80;;;24.50;68.40;;;;;;4886817;29;21100;-73
2022/10/12 11:53:58;;;;;;;5.80;5.40;;;24.50;68.40;;;;;;4896480;29;20519;-73
2022/10/12 11:56:32;;;;;;;5.77;5.37;;;24.60;68.50;;;;;;4894978;29;20451;-72
2022/10/12 11:59:04;;;;;;;5.70;5.20;;;24.60;68.60;;;;;;4890525;29;20468;-74
2022/10/12 12:01:54;;;;;;;5.70;4.67;;;24.60;68.50;;;;;;4894329;29;20455;-74
2022/10/12 12:04:29;;;;;;;5.23;4.80;;;24.60;68.60;;;;;;4886484;29;20479;-73
2022/10/12 12:07:40;;;;;;;4.67;4.37;;;24.60;68.70;;;;;;4896892;29;20868;-74
2022/10/12 12:11:02;;;;;;;5.80;5.30;;;24.60;68.70;;;;;;4897518;29;20544;-72
2022/10/12 12:13:32;;;;;;;5.17;4.87;;;24.70;68.60;;;;;;4886290;29;20559;-75
2022/10/12 12:16:31;;;;;;;5.93;5.43;;;24.70;68.70;;;;;;4897124;29;20508;-73
2022/10/12 12:19:38;;;;;;;6.27;5.63;;;24.70;68.70;;;;;;4897096;29;20483;-72
2022/10/12 12:22:29;;;;;;;5.73;4.67;;;24.80;68.50;;;;;;4892559;29;20496;-76
2022/10/12 12:25:23;;;;;;;5.40;4.90;;;24.80;68.40;;;;;;4897472;29;20460;-75
2022/10/12 12:27:54;;;;;;;5.80;5.00;;;24.90;68.20;;;;;;4893859;29;20970;-73
2022/10/12 12:30:42;;;;;;;5.40;5.00;;;24.90;68.10;;;;;;4897527;29;20864;-74
2022/10/12 12:33:29;;;;;;;7.20;5.20;;;25.00;68.00;;;;;;4886737;29;20554;-75
2022/10/12 12:36:00;;;;;;;5.80;5.20;;;25.00;68.00;;;;;;4895818;29;20461;-72
2022/10/12 12:38:31;;;;;;;7.77;4.93;;;25.00;67.90;;;;;;4894317;29;20454;-72
2022/10/12 12:41:18;;;;;;;6.70;4.93;;;25.00;67.90;;;;;;4894626;29;20470;-72
2022/10/12 12:43:58;;;;;;;5.90;5.40;;;25.00;67.90;;;;;;4896202;29;20489;-72
2022/10/12 12:46:59;;;;;;;5.17;4.67;;;25.00;67.80;;;;;;4895386;29;20454;-73
2022/10/12 12:49:29;;;;;;;5.47;5.03;;;24.90;67.90;;;;;;4879696;29;20472;-74
2022/10/12 12:51:58;;;;;;;7.37;4.90;;;24.90;67.90;;;;;;4893499;29;20568;-74
2022/10/12 12:54:27;;;;;;;4.93;4.57;;;24.90;68.00;;;;;;4888961;29;20513;-74
2022/10/12 12:57:34;;;;;;;5.17;4.70;;;24.90;67.90;;;;;;4890110;29;20464;-74
2022/10/12 13:00:18;;;;;;;7.10;4.50;;;25.00;68.00;;;;;;4880838;29;20518;-74
2022/10/12 13:03:17;;;;;;;5.67;5.13;;;25.00;68.00;;;;;;4888645;29;20533;-73
2022/10/12 13:06:28;;;;;;;5.13;4.60;;;25.00;68.00;;;;;;4890095;29;20454;-75
2022/10/12 13:09:12;;;;;;;4.40;4.10;;;24.90;68.00;;;;;;4893697;29;20802;-74
2022/10/12 13:12:15;;;;;;;4.97;4.50;;;24.90;68.00;;;;;;4897036;29;20547;-73
2022/10/12 13:15:04;;;;;;;5.33;4.93;;;24.90;68.00;;;;;;4871840;29;20477;-75
2022/10/12 13:17:59;;;;;;;5.17;4.77;;;24.90;68.00;;;;;;4883637;29;20484;-75